Time;durP1;ratioP1;P1;durP2;ratioP2;P2;SDS_P1;SDS_P2;PMS_P1;PMS_P2;Temp;Humidity;BMP_temperature;BMP_pressure;BME280_temperature;BME280_humidity;BME280_pressure;Samples;Min_cycle;Max_cycle;Signal;HPM_P1;HPM_P2
2022/09/13 00:00:55;;;;;;;;;4.00;3.00;;;;;23.79;50.45;100438.94;5107415;27;45478;-69
2022/09/13 00:03:20;;;;;;;;;5.00;5.00;;;;;23.82;50.40;100441.56;5100533;27;46896;-69
2022/09/13 00:05:46;;;;;;;;;6.00;5.00;;;;;23.81;50.40;100434.31;5101853;27;45315;-69
2022/09/13 00:08:12;;;;;;;;;5.00;3.67;;;;;23.79;50.64;100433.47;5103123;27;45508;-68
2022/09/13 00:10:40;;;;;;;;;5.00;4.00;;;;;23.77;50.43;100433.53;5101765;27;45415;-68
2022/09/13 00:13:07;;;;;;;;;6.67;5.00;;;;;23.70;50.47;100418.31;5098429;27;45399;-69
2022/09/13 00:15:34;;;;;;;;;4.67;4.67;;;;;23.73;50.71;100434.59;5095339;27;45419;-69
2022/09/13 00:18:00;;;;;;;;;5.33;4.33;;;;;23.73;50.43;100443.66;5100539;27;45382;-69
2022/09/13 00:20:25;;;;;;;;;6.00;6.00;;;;;23.68;50.20;100440.19;5101067;27;45438;-67
2022/09/13 00:22:51;;;;;;;;;11.67;8.00;;;;;23.74;50.32;100450.91;5103839;27;45568;-69
2022/09/13 00:25:17;;;;;;;;;5.00;5.00;;;;;23.73;50.61;100446.38;5097354;27;45282;-69
2022/09/13 00:27:43;;;;;;;;;8.00;6.00;;;;;23.57;50.77;100425.13;5105535;27;45215;-68
2022/09/13 00:30:10;;;;;;;;;4.00;3.67;;;;;23.53;50.42;100410.69;5101439;27;45387;-69
2022/09/13 00:32:35;;;;;;;;;4.67;4.67;;;;;23.58;50.29;100403.25;5102326;27;45561;-68
2022/09/13 00:35:02;;;;;;;;;7.33;6.00;;;;;23.72;50.70;100424.59;5094848;27;45456;-69
2022/09/13 00:37:28;;;;;;;;;6.00;6.00;;;;;23.70;50.63;100424.66;5108631;27;45445;-69
2022/09/13 00:39:53;;;;;;;;;6.33;6.33;;;;;23.70;50.27;100421.03;5104057;27;45377;-69
2022/09/13 00:42:25;;;;;;;;;8.33;5.33;;;;;23.68;50.32;100412.91;5103607;27;45918;-68
2022/09/13 00:44:58;;;;;;;;;5.33;5.33;;;;;23.70;50.38;100399.22;5106767;27;45529;-67
2022/09/13 00:47:46;;;;;;;;;7.00;4.67;;;;;23.68;50.24;100396.53;5101532;27;45455;-69
2022/09/13 00:50:32;;;;;;;;;5.33;4.00;;;;;23.65;50.49;100407.53;5101108;27;45486;-69
2022/09/13 00:53:03;;;;;;;;;7.33;6.67;;;;;23.54;50.54;100386.09;5102049;27;46156;-68
2022/09/13 00:55:34;;;;;;;;;4.33;4.33;;;;;23.42;50.38;100364.69;5102425;27;45457;-68
2022/09/13 00:58:09;;;;;;;;;5.00;4.00;;;;;23.54;50.41;100385.19;5098992;27;45419;-69
2022/09/13 01:00:37;;;;;;;;;5.67;4.33;;;;;23.65;50.22;100404.81;5097745;27;45412;-69
2022/09/13 01:03:08;;;;;;;;;9.00;6.33;;;;;23.64;50.29;100403.06;5105455;27;46088;-68
2022/09/13 01:05:47;;;;;;;;;4.67;4.67;;;;;23.63;50.56;100405.84;5106313;27;45371;-68
2022/09/13 01:08:21;;;;;;;;;4.00;4.00;;;;;23.64;50.68;100404.88;5104647;27;45380;-68
2022/09/13 01:10:49;;;;;;;;;7.00;5.33;;;;;23.63;50.57;100403.09;5117759;27;45454;-69
2022/09/13 01:13:25;;;;;;;;;7.00;4.00;;;;;23.64;50.68;100399.41;5102238;27;46188;-68
2022/09/13 01:15:51;;;;;;;;;3.33;3.33;;;;;23.65;50.75;100388.47;5099764;27;45414;-67
2022/09/13 01:18:18;;;;;;;;;6.00;4.67;;;;;23.62;50.62;100377.66;5100833;27;45668;-67
2022/09/13 01:21:20;;;;;;;;;5.00;4.00;;;;;23.59;50.66;100374.13;5099081;27;45329;-69
2022/09/13 01:24:06;;;;;;;;;5.67;5.00;;;;;23.62;50.89;100376.75;5098219;27;45826;-68
2022/09/13 01:27:07;;;;;;;;;5.00;4.00;;;;;23.61;50.65;100380.44;5096872;27;45526;-67
2022/09/13 01:30:01;;;;;;;;;8.00;5.67;;;;;23.58;51.11;100377.78;5093530;27;45431;-68
2022/09/13 01:32:29;;;;;;;;;6.00;6.00;;;;;23.58;50.96;100369.63;5112321;27;45732;-68
2022/09/13 01:35:22;;;;;;;;;2.00;2.00;;;;;23.58;50.80;100369.63;5108542;27;45560;-69
2022/09/13 01:37:53;;;;;;;;;4.67;3.33;;;;;23.55;50.67;100368.78;5100377;27;45493;-68
2022/09/13 01:40:21;;;;;;;;;5.00;5.00;;;;;23.54;51.00;100363.38;5104586;27;45588;-67
2022/09/13 01:42:56;;;;;;;;;5.33;4.33;;;;;23.55;50.91;100357.00;5105404;27;45430;-69
2022/09/13 01:45:30;;;;;;;;;4.00;4.00;;;;;23.51;50.63;100358.94;5101663;27;46188;-69
2022/09/13 01:48:25;;;;;;;;;4.33;2.00;;;;;23.52;50.73;100357.97;5103709;27;45568;-68
2022/09/13 01:50:50;;;;;;;;;3.00;3.00;;;;;23.53;50.36;100357.03;5092167;27;45572;-68
2022/09/13 01:53:32;;;;;;;;;4.00;4.00;;;;;23.53;50.43;100354.31;5112256;27;45363;-69
2022/09/13 01:56:06;;;;;;;;;3.00;3.00;;;;;23.51;50.55;100349.84;5098382;27;46255;-67
2022/09/13 01:58:47;;;;;;;;;5.00;5.00;;;;;23.51;50.33;100342.56;5097103;27;45470;-68
2022/09/13 02:01:37;;;;;;;;;4.00;3.00;;;;;23.53;50.37;100345.25;5096518;27;45403;-67
2022/09/13 02:04:08;;;;;;;;;2.67;2.00;;;;;23.53;49.93;100347.97;5102991;27;45478;-69
2022/09/13 02:06:39;;;;;;;;;3.00;3.00;;;;;23.43;49.91;100328.31;5104715;27;46412;-68
2022/09/13 02:09:12;;;;;;;;;2.67;2.67;;;;;23.52;50.33;100354.38;5103001;27;45510;-68
2022/09/13 02:11:41;;;;;;;;;5.00;3.33;;;;;23.51;50.14;100347.13;5101009;27;45541;-68
2022/09/13 02:14:23;;;;;;;;;4.00;3.00;;;;;23.15;50.14;100291.06;5106711;27;45435;-68
2022/09/13 02:17:02;;;;;;;;;2.67;2.67;;;;;23.44;50.19;100342.81;5102059;27;45308;-67
2022/09/13 02:19:34;;;;;;;;;2.00;2.00;;;;;23.42;50.50;100340.16;5098085;27;45582;-68
2022/09/13 02:22:01;;;;;;;;;2.00;2.00;;;;;23.43;50.41;100338.28;5098805;27;45408;-68
2022/09/13 02:24:32;;;;;;;;;2.00;2.00;;;;;23.42;50.52;100336.53;5096785;27;45369;-68
2022/09/13 02:27:04;;;;;;;;;2.33;2.33;;;;;23.42;50.54;100336.53;5098675;27;46284;-68
2022/09/13 02:29:31;;;;;;;;;4.00;4.00;;;;;23.40;50.57;100331.13;5106167;27;45371;-67
2022/09/13 02:32:06;;;;;;;;;3.67;3.33;;;;;23.39;50.53;100337.50;5103478;27;45517;-68
2022/09/13 02:34:43;;;;;;;;;5.33;5.00;;;;;23.34;50.67;100321.31;5097922;27;45416;-69
2022/09/13 02:37:10;;;;;;;;;2.00;2.00;;;;;23.27;50.90;100317.00;5096020;27;46255;-69
2022/09/13 02:39:43;;;;;;;;;2.33;2.33;;;;;23.30;51.03;100321.50;5107054;27;45388;-69
2022/09/13 02:42:18;;;;;;;;;1.00;1.00;;;;;23.27;50.97;100313.41;5101863;27;45284;-67
2022/09/13 02:44:53;;;;;;;;;2.00;2.00;;;;;23.20;50.92;100310.00;5105873;27;45402;-69
2022/09/13 02:47:28;;;;;;;;;2.00;2.00;;;;;23.26;50.79;100315.22;5097777;27;46132;-69
2022/09/13 02:50:06;;;;;;;;;3.00;3.00;;;;;23.25;50.85;100318.91;5102560;27;45329;-68
2022/09/13 02:52:40;;;;;;;;;4.00;4.00;;;;;23.25;50.92;100313.44;5098556;27;45501;-69
2022/09/13 02:55:08;;;;;;;;;2.00;2.00;;;;;23.24;51.02;100311.66;5097327;27;45433;-69
2022/09/13 02:57:41;;;;;;;;;2.67;2.67;;;;;23.23;50.93;100309.91;5096672;27;45645;-67
2022/09/13 03:00:08;;;;;;;;;3.67;2.67;;;;;23.22;51.08;100308.09;5096733;27;45556;-69
2022/09/13 03:02:33;;;;;;;;;4.00;4.00;;;;;23.10;51.11;100289.41;5095564;27;45338;-69
2022/09/13 03:05:00;;;;;;;;;6.33;4.67;;;;;23.23;51.20;100308.97;5105789;27;45441;-67
2022/09/13 03:07:26;;;;;;;;;3.67;3.00;;;;;23.23;51.03;100309.91;5102928;27;46213;-69
2022/09/13 03:09:56;;;;;;;;;2.67;2.67;;;;;23.05;51.05;100277.75;5101968;27;45605;-68
2022/09/13 03:12:42;;;;;;;;;3.00;3.00;;;;;23.22;50.91;100299.91;5101709;27;45301;-69
2022/09/13 03:15:26;;;;;;;;;3.33;3.00;;;;;22.83;51.05;100232.13;5100046;27;45402;-69
2022/09/13 03:18:15;;;;;;;;;8.00;8.00;;;;;23.22;51.25;100299.03;5108274;27;46320;-68
2022/09/13 03:21:07;;;;;;;;;6.00;4.00;;;;;23.21;51.01;100300.84;5097732;27;45486;-69
2022/09/13 03:23:44;;;;;;;;;3.00;3.00;;;;;23.22;51.27;100297.19;5097284;27;45537;-69
2022/09/13 03:26:40;;;;;;;;;2.00;2.00;;;;;23.24;51.07;100303.47;5095195;27;45479;-68
2022/09/13 03:29:10;;;;;;;;;3.00;2.33;;;;;23.25;50.93;100298.94;5101772;27;45447;-68
2022/09/13 03:32:06;;;;;;;;;3.00;3.00;;;;;23.24;51.06;100308.94;5095650;27;45393;-69
2022/09/13 03:34:39;;;;;;;;;3.33;2.33;;;;;23.23;51.02;100308.97;5107572;27;45517;-69
2022/09/13 03:37:18;;;;;;;;;5.00;4.67;;;;;23.21;51.08;100305.41;5095413;27;45685;-68
2022/09/13 03:40:04;;;;;;;;;2.00;2.00;;;;;23.22;50.85;100309.94;5108485;27;46245;-68
2022/09/13 03:42:42;;;;;;;;;4.00;3.00;;;;;23.23;51.27;100312.63;5096088;27;45463;-69
2022/09/13 03:45:10;;;;;;;;;7.33;3.33;;;;;23.24;51.02;100308.94;5103017;27;45383;-69
2022/09/13 03:47:39;;;;;;;;;2.00;2.00;;;;;23.21;50.93;100314.47;5100333;27;45521;-69
2022/09/13 03:50:07;;;;;;;;;5.00;5.00;;;;;23.23;51.04;100320.78;5101564;27;46467;-67
2022/09/13 03:52:34;;;;;;;;;2.00;2.00;;;;;23.15;50.98;100301.06;5097967;27;45486;-69
2022/09/13 03:55:00;;;;;;;;;4.00;3.00;;;;;23.25;51.07;100327.09;5099245;27;45453;-68
2022/09/13 03:57:25;;;;;;;;;3.00;3.00;;;;;23.12;50.72;100307.50;5096605;27;45329;-70
2022/09/13 03:59:53;;;;;;;;;3.00;2.00;;;;;23.24;50.96;100308.94;5096240;27;45372;-68
2022/09/13 04:02:21;;;;;;;;;3.00;3.00;;;;;22.95;50.89;100260.81;5097158;27;45348;-68
2022/09/13 04:04:47;;;;;;;;;6.67;3.67;;;;;23.24;51.10;100308.06;5100183;27;45412;-69
2022/09/13 04:07:15;;;;;;;;;2.00;2.00;;;;;23.24;50.72;100306.22;5100936;27;45336;-69
2022/09/13 04:09:40;;;;;;;;;2.00;2.00;;;;;23.07;50.70;100281.38;5099901;27;45446;-69
2022/09/13 04:12:07;;;;;;;;;4.00;2.67;;;;;23.23;50.89;100311.72;5103193;27;45399;-69
2022/09/13 04:14:32;;;;;;;;;4.67;3.00;;;;;23.23;50.62;100312.63;5101092;27;45295;-69
2022/09/13 04:16:58;;;;;;;;;2.00;2.00;;;;;23.23;50.69;100315.34;5100776;27;45253;-69
2022/09/13 04:19:24;;;;;;;;;4.00;3.33;;;;;23.25;50.78;100313.44;5100368;27;45583;-67
2022/09/13 04:21:51;;;;;;;;;3.33;3.33;;;;;23.24;51.21;100314.38;5100831;27;45438;-69
2022/09/13 04:24:18;;;;;;;;;3.00;3.00;;;;;23.25;51.32;100307.13;5098659;27;45405;-69
2022/09/13 04:26:47;;;;;;;;;4.33;3.00;;;;;23.24;50.96;100305.31;5098587;27;45450;-69
2022/09/13 04:29:12;;;;;;;;;6.33;3.00;;;;;23.18;51.02;100300.94;5104150;27;46751;-68
2022/09/13 04:31:38;;;;;;;;;5.00;2.33;;;;;23.21;51.09;100311.75;5103719;27;45258;-68
2022/09/13 04:34:03;;;;;;;;;4.00;4.00;;;;;23.23;51.03;100320.78;5102804;27;45491;-68
2022/09/13 04:36:28;;;;;;;;;3.67;3.67;;;;;23.24;51.15;100333.47;5098294;27;45573;-68
2022/09/13 04:38:54;;;;;;;;;4.67;3.67;;;;;23.24;51.24;100330.75;5097157;27;55277;-69
2022/09/13 04:41:19;;;;;;;;;7.00;4.00;;;;;23.24;51.11;100314.38;5109121;27;45474;-69
2022/09/13 04:43:51;;;;;;;;;3.00;3.00;;;;;23.19;51.10;100308.19;5103715;27;60043;-68
2022/09/13 04:46:17;;;;;;;;;5.00;3.00;;;;;23.22;51.30;100313.56;5112206;27;45534;-69
2022/09/13 04:48:42;;;;;;;;;2.00;0.00;;;;;23.21;51.57;100319.06;5106095;27;45401;-68
2022/09/13 04:51:07;;;;;;;;;4.00;4.00;;;;;23.18;51.72;100309.13;5101958;27;55836;-68
2022/09/13 04:53:33;;;;;;;;;2.00;2.00;;;;;22.75;51.78;100243.31;5101368;27;46302;-69
2022/09/13 04:56:02;;;;;;;;;4.00;4.00;;;;;23.04;51.95;100311.41;5099764;27;45532;-68
2022/09/13 04:58:28;;;;;;;;;3.33;3.33;;;;;23.08;52.14;100335.81;5098298;27;47070;-68
2022/09/13 05:00:59;;;;;;;;;2.00;2.00;;;;;23.08;51.86;100338.53;5097785;27;45420;-69
2022/09/13 05:03:24;;;;;;;;;2.33;0.67;;;;;23.04;52.24;100325.91;5096264;27;45397;-67
2022/09/13 05:05:49;;;;;;;;;5.00;4.00;;;;;23.08;52.21;100329.44;5102939;27;51136;-67
2022/09/13 05:08:14;;;;;;;;;3.00;3.00;;;;;22.77;51.91;100275.94;5105098;27;54595;-68
2022/09/13 05:10:40;;;;;;;;;2.67;2.67;;;;;22.91;51.93;100291.81;5105135;27;45693;-69
2022/09/13 05:13:05;;;;;;;;;3.67;3.67;;;;;23.03;51.79;100307.75;5101891;27;45378;-68
2022/09/13 05:15:30;;;;;;;;;4.67;3.00;;;;;23.00;51.77;100311.50;5103808;27;52339;-68
2022/09/13 05:17:56;;;;;;;;;7.00;7.00;;;;;22.99;51.69;100312.41;5108030;27;57323;-68
2022/09/13 05:20:21;;;;;;;;;6.33;4.00;;;;;23.00;52.04;100332.41;5101959;27;45661;-68
2022/09/13 05:22:46;;;;;;;;;5.00;5.00;;;;;23.00;52.06;100330.56;5098449;27;53502;-69
2022/09/13 05:25:12;;;;;;;;;4.00;4.00;;;;;22.99;52.04;100339.66;5097294;27;45295;-69
2022/09/13 05:27:38;;;;;;;;;5.67;5.00;;;;;22.97;51.66;100338.84;5096571;27;46291;-69
2022/09/13 05:30:04;;;;;;;;;6.00;4.33;;;;;22.78;51.98;100308.53;5110504;27;45479;-68
2022/09/13 05:32:30;;;;;;;;;5.00;5.00;;;;;22.81;51.93;100307.56;5100623;27;45471;-69
2022/09/13 05:34:56;;;;;;;;;6.00;4.00;;;;;22.90;52.12;100322.72;5097991;27;45565;-68
2022/09/13 05:37:21;;;;;;;;;24.00;19.00;;;;;22.91;52.27;100321.78;5111777;27;63868;-68
2022/09/13 05:39:46;;;;;;;;;8.00;5.33;;;;;22.93;52.08;100314.44;5102206;27;54608;-69
2022/09/13 05:42:11;;;;;;;;;7.67;7.67;;;;;22.96;52.00;100309.78;5109405;27;58174;-68
2022/09/13 05:44:37;;;;;;;;;4.00;4.00;;;;;22.99;51.49;100317.00;5110102;27;53185;-70
2022/09/13 05:47:02;;;;;;;;;5.00;3.67;;;;;22.99;51.78;100327.88;5100368;27;66138;-69
2022/09/13 05:49:27;;;;;;;;;3.67;3.67;;;;;22.95;51.62;100338.00;5101946;27;45460;-69
2022/09/13 05:51:53;;;;;;;;;4.00;3.33;;;;;22.92;52.05;100340.81;5101703;27;45479;-69
2022/09/13 05:54:18;;;;;;;;;3.00;3.00;;;;;22.93;51.87;100337.16;5099405;27;45698;-68
2022/09/13 05:56:43;;;;;;;;;22.33;19.33;;;;;22.84;51.94;100318.38;5099799;27;45975;-69
2022/09/13 05:59:15;;;;;;;;;5.67;5.33;;;;;22.95;51.75;100331.63;5097177;27;46616;-71
2022/09/13 06:01:41;;;;;;;;;6.67;6.67;;;;;22.93;52.04;100331.72;5097530;27;45367;-69
2022/09/13 06:04:06;;;;;;;;;7.00;7.00;;;;;22.97;51.86;100324.31;5096046;27;45508;-70
2022/09/13 06:06:34;;;;;;;;;10.33;10.33;;;;;22.95;51.84;100315.28;5104452;27;45551;-69
2022/09/13 06:08:59;;;;;;;;;7.00;7.00;;;;;22.97;51.78;100317.03;5110100;27;45571;-68
2022/09/13 06:11:25;;;;;;;;;6.33;6.00;;;;;23.02;52.05;100327.78;5100608;27;46655;-70
2022/09/13 06:13:52;;;;;;;;;11.67;8.00;;;;;23.03;52.05;100317.78;5104069;27;45474;-69
2022/09/13 06:16:17;;;;;;;;;12.00;11.00;;;;;23.09;52.13;100318.50;5098765;27;46313;-68
2022/09/13 06:18:43;;;;;;;;;11.33;10.33;;;;;23.09;52.29;100315.78;5101209;27;45557;-69
2022/09/13 06:21:12;;;;;;;;;11.00;10.33;;;;;23.10;52.38;100309.41;5097769;27;45510;-69
2022/09/13 06:23:38;;;;;;;;;8.00;7.00;;;;;23.12;52.53;100298.44;5098875;27;45435;-68
2022/09/13 06:26:08;;;;;;;;;8.00;8.00;;;;;23.12;52.47;100284.81;5095631;27;46262;-69
2022/09/13 06:28:34;;;;;;;;;8.33;8.33;;;;;23.10;52.96;100283.97;5095769;27;45541;-68
2022/09/13 06:31:07;;;;;;;;;12.00;11.00;;;;;23.14;52.93;100286.53;5101181;27;45277;-69
2022/09/13 06:33:34;;;;;;;;;6.67;6.00;;;;;23.09;53.14;100285.81;5099151;27;45408;-69
2022/09/13 06:36:01;;;;;;;;;15.00;10.67;;;;;23.10;53.36;100283.97;5096270;27;46424;-68
2022/09/13 06:38:26;;;;;;;;;13.33;12.67;;;;;23.14;53.39;100283.81;5095749;27;45493;-69
2022/09/13 06:41:00;;;;;;;;;11.67;9.33;;;;;23.17;53.10;100274.66;5111169;27;45469;-68
2022/09/13 06:43:26;;;;;;;;;21.00;18.33;;;;;23.15;52.89;100269.25;5105242;27;45575;-68
2022/09/13 06:45:52;;;;;;;;;13.33;10.33;;;;;23.20;52.91;100266.38;5099801;27;45955;-69
2022/09/13 06:48:18;;;;;;;;;8.67;7.00;;;;;23.26;52.16;100270.72;5103455;27;45414;-68
2022/09/13 06:50:44;;;;;;;;;12.00;10.67;;;;;23.29;52.07;100259.72;5098584;27;45679;-69
2022/09/13 06:53:10;;;;;;;;;12.00;9.33;;;;;23.32;52.12;100251.44;5098603;27;45593;-70
2022/09/13 06:55:35;;;;;;;;;5.00;5.00;;;;;23.33;51.33;100245.94;5097850;27;45505;-70
2022/09/13 06:58:00;;;;;;;;;6.67;6.00;;;;;23.33;51.44;100239.59;5099381;27;45472;-69
2022/09/13 07:00:25;;;;;;;;;6.00;4.33;;;;;23.33;51.16;100243.22;5095275;27;62145;-68
2022/09/13 07:02:51;;;;;;;;;10.33;10.00;;;;;23.30;51.75;100226.97;5095335;27;45269;-70
2022/09/13 07:05:17;;;;;;;;;6.00;4.67;;;;;22.90;51.29;100154.75;5094199;27;45972;-68
2022/09/13 07:07:43;;;;;;;;;4.67;4.67;;;;;23.21;51.41;100196.41;5100712;27;45430;-70
2022/09/13 07:10:08;;;;;;;;;4.00;4.00;;;;;23.29;51.37;100211.53;5104253;27;45568;-68
2022/09/13 07:12:34;;;;;;;;;6.33;5.00;;;;;23.28;51.57;100209.78;5100696;27;45558;-69
2022/09/13 07:14:59;;;;;;;;;6.33;5.33;;;;;23.24;51.62;100208.09;5094186;27;59740;-69
2022/09/13 07:17:26;;;;;;;;;6.33;6.00;;;;;23.21;51.97;100204.59;5099685;27;45456;-69
2022/09/13 07:19:51;;;;;;;;;7.67;7.00;;;;;23.24;51.70;100199.03;5097489;27;45458;-69
2022/09/13 07:22:17;;;;;;;;;5.33;5.33;;;;;23.31;51.83;100209.69;5098754;27;45471;-69
2022/09/13 07:24:42;;;;;;;;;5.00;5.00;;;;;23.29;51.72;100202.47;5095521;27;46066;-70
2022/09/13 07:27:07;;;;;;;;;6.00;4.00;;;;;23.30;51.90;100207.00;5102653;27;46185;-69
2022/09/13 07:29:33;;;;;;;;;3.33;3.33;;;;;23.34;51.47;100206.81;5094556;27;45248;-69
2022/09/13 07:31:58;;;;;;;;;7.00;4.00;;;;;23.34;51.24;100203.22;5108220;27;45436;-69
2022/09/13 07:34:25;;;;;;;;;3.33;2.00;;;;;23.44;51.55;100206.50;5105465;27;45549;-68
2022/09/13 07:36:51;;;;;;;;;7.00;5.00;;;;;23.48;51.62;100213.66;5094982;27;45492;-69
2022/09/13 07:39:17;;;;;;;;;8.00;5.00;;;;;23.46;51.22;100191.88;5094109;27;45348;-69
2022/09/13 07:41:45;;;;;;;;;7.00;5.67;;;;;23.56;51.34;100214.25;5102455;27;45543;-70
2022/09/13 07:44:11;;;;;;;;;5.33;5.00;;;;;23.57;51.55;100215.13;5099588;27;45610;-69
2022/09/13 07:46:42;;;;;;;;;5.00;5.00;;;;;23.59;51.16;100216.84;5104933;27;45350;-69
2022/09/13 07:49:09;;;;;;;;;5.67;5.67;;;;;23.63;51.30;100225.84;5100982;27;45558;-70
2022/09/13 07:51:38;;;;;;;;;5.00;5.00;;;;;23.70;51.31;100217.34;5106222;27;45352;-69
2022/09/13 07:54:08;;;;;;;;;8.33;4.33;;;;;23.70;50.79;100217.34;5100822;27;46029;-69
2022/09/13 07:56:35;;;;;;;;;11.00;9.67;;;;;23.78;50.84;100228.00;5102538;27;45463;-70
2022/09/13 07:59:03;;;;;;;;;6.67;6.67;;;;;23.84;50.68;100229.63;5099229;27;45462;-69
2022/09/13 08:01:40;;;;;;;;;6.00;5.00;;;;;23.87;50.48;100221.34;5100520;27;45609;-67
2022/09/13 08:04:09;;;;;;;;;4.67;3.67;;;;;23.88;50.50;100221.28;5097839;27;46296;-69
2022/09/13 08:06:35;;;;;;;;;5.33;5.33;;;;;23.94;50.79;100228.38;5100197;27;45532;-69
2022/09/13 08:09:03;;;;;;;;;6.67;5.00;;;;;23.96;50.27;100225.59;5106859;27;45569;-68
2022/09/13 08:11:32;;;;;;;;;6.67;3.00;;;;;23.99;50.55;100229.06;5104339;27;46052;-67
2022/09/13 08:13:59;;;;;;;;;6.00;4.00;;;;;24.01;50.39;100220.84;5105800;27;45411;-68
2022/09/13 08:16:26;;;;;;;;;5.67;4.67;;;;;24.04;50.26;100220.69;5097508;27;45455;-69
2022/09/13 08:18:56;;;;;;;;;5.33;5.33;;;;;24.05;50.06;100225.22;5100797;27;45565;-69
2022/09/13 08:21:23;;;;;;;;;3.33;3.33;;;;;23.99;49.91;100218.16;5100575;27;45521;-70
2022/09/13 08:23:52;;;;;;;;;3.33;3.33;;;;;23.91;50.15;100196.63;5101149;27;45490;-68
2022/09/13 08:26:18;;;;;;;;;4.00;4.00;;;;;24.02;50.15;100217.13;5098292;27;45361;-70
2022/09/13 08:28:43;;;;;;;;;5.33;3.33;;;;;24.06;49.99;100222.44;5099441;27;45491;-70
2022/09/13 08:31:11;;;;;;;;;5.00;4.00;;;;;24.02;49.82;100201.69;5097205;27;56663;-68
2022/09/13 08:33:37;;;;;;;;;2.67;2.67;;;;;24.12;49.96;100213.09;5101756;27;46322;-69
2022/09/13 08:36:04;;;;;;;;;5.33;5.00;;;;;24.13;49.57;100209.44;5113339;27;45436;-67
2022/09/13 08:38:31;;;;;;;;;3.00;3.00;;;;;24.18;49.51;100217.44;5098141;27;45510;-70
2022/09/13 08:41:00;;;;;;;;;6.33;5.00;;;;;24.23;49.44;100216.31;5097895;27;45383;-71
2022/09/13 08:43:39;;;;;;;;;5.67;4.00;;;;;24.21;49.22;100212.75;5103045;27;46355;-70
2022/09/13 08:46:16;;;;;;;;;8.33;4.00;;;;;24.25;49.18;100219.91;5104445;27;45338;-69
2022/09/13 08:48:46;;;;;;;;;4.00;2.33;;;;;24.17;49.40;100207.47;5103616;27;45284;-68
2022/09/13 08:51:42;;;;;;;;;3.33;2.00;;;;;24.27;49.20;100238.94;5103803;27;45477;-70
2022/09/13 08:54:12;;;;;;;;;10.33;7.67;;;;;24.19;49.28;100236.50;5099463;27;46385;-68
2022/09/13 08:56:45;;;;;;;;;4.00;4.00;;;;;24.34;49.20;100256.88;5102338;27;45442;-69
2022/09/13 08:59:22;;;;;;;;;5.00;5.00;;;;;24.42;48.76;100254.72;5098410;27;45561;-68
2022/09/13 09:02:01;;;;;;;;;13.00;12.00;;;;;24.51;48.60;100258.94;5099556;27;45250;-70
2022/09/13 09:04:26;;;;;;;;;4.33;4.33;;;;;24.58;48.03;100265.97;5097405;27;46495;-70
2022/09/13 09:07:09;;;;;;;;;7.67;4.67;;;;;24.63;47.94;100263.03;5096656;27;45555;-69
2022/09/13 09:09:42;;;;;;;;;7.00;7.00;;;;;24.69;47.88;100265.53;5103280;27;45426;-71
2022/09/13 09:12:19;;;;;;;;;11.33;4.00;;;;;24.77;47.32;100266.13;5101952;27;45308;-69
2022/09/13 09:15:09;;;;;;;;;23.00;21.33;;;;;24.83;47.29;100262.25;5101176;27;45618;-69
2022/09/13 09:17:54;;;;;;;;;12.67;9.00;;;;;24.91;46.98;100256.47;5101034;27;45315;-68
2022/09/13 09:20:24;;;;;;;;;5.00;4.00;;;;;24.84;46.66;100272.22;5102744;27;45470;-69
2022/09/13 09:22:51;;;;;;;;;3.00;3.00;;;;;24.89;47.17;100292.06;5099130;27;45504;-68
2022/09/13 09:25:18;;;;;;;;;10.00;5.00;;;;;24.91;46.79;100303.81;5099778;27;46346;-69
2022/09/13 09:27:44;;;;;;;;;7.00;7.00;;;;;24.91;47.54;100284.69;5097352;27;45553;-70
2022/09/13 09:30:15;;;;;;;;;10.00;8.67;;;;;24.86;52.07;100258.50;5113248;27;45883;-68
2022/09/13 09:32:55;;;;;;;;;14.00;10.33;;;;;24.93;52.75;100279.16;5101442;27;45565;-69
2022/09/13 09:35:27;;;;;;;;;7.67;5.00;;;;;24.88;52.49;100273.00;5098497;27;45553;-69
2022/09/13 09:38:18;;;;;;;;;10.00;6.33;;;;;24.83;53.84;100274.09;5098734;27;45474;-68
2022/09/13 09:40:44;;;;;;;;;12.33;8.67;;;;;24.44;54.19;100222.78;5097256;27;45391;-70
2022/09/13 09:43:58;;;;;;;;;8.67;6.67;;;;;24.75;54.52;100283.50;5102477;27;45597;-68
2022/09/13 09:46:31;;;;;;;;;4.33;4.33;;;;;24.73;53.27;100289.06;5092717;27;46411;-68
2022/09/13 09:50:07;;;;;;;;;6.00;6.00;;;;;24.74;54.90;100289.94;5101070;27;45562;-69
2022/09/13 09:51:53;;;;;;;;;4.00;4.00;;;;;24.68;53.11;100293.78;5104951;27;45445;-69
2022/09/13 09:54:19;;;;;;;;;10.00;6.00;;;;;24.69;52.97;100297.44;5100481;27;45566;-70
2022/09/13 09:56:54;;;;;;;;;11.00;7.33;;;;;24.72;54.02;100295.47;5101656;27;45336;-69
2022/09/13 09:59:30;;;;;;;;;10.00;8.00;;;;;24.68;53.94;100269.22;5097907;27;45620;-70
2022/09/13 10:01:56;;;;;;;;;9.33;9.33;;;;;24.79;54.05;100283.34;5097432;27;45635;-69
2022/09/13 10:04:22;;;;;;;;;10.33;7.33;;;;;24.80;52.35;100292.44;5097091;27;45542;-69
2022/09/13 10:06:50;;;;;;;;;17.33;13.67;;;;;24.72;53.19;100284.53;5096351;27;46230;-71
2022/09/13 10:09:20;;;;;;;;;8.00;6.67;;;;;24.87;52.86;100309.47;5101971;27;45329;-70
2022/09/13 10:11:52;;;;;;;;;8.33;7.33;;;;;24.88;54.08;100303.97;5103935;27;45390;-68
2022/09/13 10:14:29;;;;;;;;;7.00;7.00;;;;;24.94;53.19;100308.28;5101286;27;45444;-69
2022/09/13 10:17:20;;;;;;;;;10.00;10.00;;;;;24.95;53.82;100304.59;5103298;27;45580;-68
2022/09/13 10:19:58;;;;;;;;;13.67;6.33;;;;;25.02;53.07;100301.53;5097884;27;45337;-72
2022/09/13 10:22:24;;;;;;;;;11.00;9.67;;;;;24.98;52.21;100296.28;5097674;27;45277;-70
2022/09/13 10:24:49;;;;;;;;;10.33;10.33;;;;;25.02;51.42;100300.66;5104905;27;45548;-70
2022/09/13 10:27:36;;;;;;;;;7.00;6.00;;;;;25.12;52.36;100295.72;5095499;27;46391;-69
2022/09/13 10:30:05;;;;;;;;;7.00;5.33;;;;;25.12;50.95;100296.59;5095812;27;45519;-70
2022/09/13 10:32:32;;;;;;;;;9.33;6.67;;;;;25.12;51.35;100304.78;5095131;27;45575;-71
2022/09/13 10:35:15;;;;;;;;;8.00;6.67;;;;;25.09;50.80;100296.72;5105641;27;45424;-70
2022/09/13 10:37:43;;;;;;;;;9.00;6.33;;;;;25.09;51.13;100291.25;5097737;27;45307;-69
2022/09/13 10:40:32;;;;;;;;;5.33;5.33;;;;;25.14;50.86;100293.78;5094531;27;45379;-71
2022/09/13 10:43:03;;;;;;;;;9.33;8.33;;;;;25.08;50.87;100294.94;5095019;27;45428;-69
2022/09/13 10:45:30;;;;;;;;;14.00;11.33;;;;;25.02;50.39;100296.06;5101181;27;45493;-70
2022/09/13 10:48:14;;;;;;;;;21.33;20.00;;;;;25.02;51.32;100289.72;5103694;27;47062;-71
2022/09/13 10:50:40;;;;;;;;;11.00;7.00;;;;;25.01;50.54;100288.84;5096060;27;45567;-71
2022/09/13 10:53:30;;;;;;;;;15.67;15.67;;;;;25.12;51.08;100288.38;5103720;27;45535;-71
2022/09/13 10:55:56;;;;;;;;;6.67;6.33;;;;;25.25;49.85;100283.31;5097915;27;45292;-69
2022/09/13 10:58:22;;;;;;;;;5.00;5.00;;;;;25.34;49.69;100272.03;5100548;27;45377;-71
2022/09/13 11:00:53;;;;;;;;;4.67;4.67;;;;;25.50;49.32;100274.09;5097146;27;45581;-72
2022/09/13 11:03:46;;;;;;;;;14.67;14.67;;;;;25.65;48.75;100267.94;5097705;27;45507;-70
2022/09/13 11:06:37;;;;;;;;;7.33;6.00;;;;;25.78;48.72;100262.81;5095402;27;45661;-69
2022/09/13 11:09:17;;;;;;;;;6.00;5.00;;;;;25.89;48.29;100252.28;5094568;27;46484;-70
2022/09/13 11:11:51;;;;;;;;;8.67;5.00;;;;;25.97;47.83;100254.72;5103875;27;45545;-70
2022/09/13 11:14:41;;;;;;;;;9.67;6.33;;;;;26.04;47.36;100242.50;5101060;27;45519;-69
2022/09/13 11:17:25;;;;;;;;;5.33;5.00;;;;;26.17;46.76;100252.88;5103925;27;46093;-69
2022/09/13 11:19:56;;;;;;;;;9.00;6.67;;;;;26.26;46.03;100256.09;5098351;27;46103;-69
2022/09/13 11:22:38;;;;;;;;;5.00;5.00;;;;;26.34;45.88;100252.13;5096994;27;45534;-70
2022/09/13 11:25:27;;;;;;;;;4.67;4.00;;;;;26.45;45.67;100255.25;5097531;27;45507;-69
2022/09/13 11:28:04;;;;;;;;;6.33;4.33;;;;;26.55;45.53;100248.34;5099705;27;45474;-70
2022/09/13 11:30:37;;;;;;;;;3.00;3.00;;;;;26.57;44.91;100243.69;5095467;27;45590;-70
2022/09/13 11:33:21;;;;;;;;;4.33;4.33;;;;;26.73;44.91;100245.69;5102328;27;45330;-70
2022/09/13 11:36:03;;;;;;;;;8.33;5.33;;;;;26.81;44.73;100246.22;5126079;27;45211;-71
2022/09/13 11:38:40;;;;;;;;;4.00;4.00;;;;;26.84;43.51;100238.75;5115913;27;45255;-72
2022/09/13 11:41:11;;;;;;;;;6.00;5.00;;;;;26.88;44.34;100233.09;5113362;27;45584;-70
2022/09/13 11:43:58;;;;;;;;;14.67;14.00;;;;;26.93;43.92;100233.78;5112898;27;45363;-70